Time;durP1;ratioP1;P1;durP2;ratioP2;P2;SDS_P1;SDS_P2;PMS_P1;PMS_P2;Temp;Humidity;BMP_temperature;BMP_pressure;BME280_temperature;BME280_humidity;BME280_pressure;Samples;Min_cycle;Max_cycle;Signal;HPM_P1;HPM_P2
2022/09/23 00:01:01;;;;;;;2.92;0.90;;;9.80;99.90;;;;;;4910628;29;20174;-88
2022/09/23 00:03:29;;;;;;;1.30;0.88;;;9.70;99.90;;;;;;4911866;29;20186;-88
2022/09/23 00:06:05;;;;;;;1.63;0.82;;;9.70;99.90;;;;;;4926640;29;20178;-93
2022/09/23 00:08:32;;;;;;;1.20;1.00;;;9.70;99.90;;;;;;4898279;29;20282;-93
2022/09/23 00:11:07;;;;;;;1.23;0.80;;;9.80;99.90;;;;;;4888065;29;20206;-90
2022/09/23 00:13:35;;;;;;;0.93;0.80;;;9.80;99.90;;;;;;4887501;29;20599;-89
2022/09/23 00:16:15;;;;;;;1.85;0.95;;;9.80;99.90;;;;;;4887565;29;20191;-92
2022/09/23 00:18:41;;;;;;;1.50;1.00;;;9.90;99.90;;;;;;4887326;29;20185;-91
2022/09/23 00:21:10;;;;;;;1.42;0.90;;;9.80;99.90;;;;;;4887513;29;20210;-94
2022/09/23 00:23:37;;;;;;;3.83;1.05;;;9.70;99.90;;;;;;4890190;29;20179;-88
2022/09/23 00:26:09;;;;;;;1.70;1.02;;;9.70;99.90;;;;;;4886012;29;20210;-92
2022/09/23 00:28:37;;;;;;;4.05;1.02;;;9.60;99.90;;;;;;4888458;29;20262;-92
2022/09/23 00:31:05;;;;;;;3.15;1.00;;;9.40;99.90;;;;;;4875180;29;20183;-89
2022/09/23 00:33:32;;;;;;;1.38;0.95;;;9.40;99.90;;;;;;4887408;29;20183;-90
2022/09/23 00:36:05;;;;;;;1.55;1.10;;;9.40;99.90;;;;;;4915760;29;20188;-89
2022/09/23 00:38:32;;;;;;;1.42;1.15;;;9.40;99.90;;;;;;4905513;29;20247;-91
2022/09/23 00:40:59;;;;;;;1.42;1.02;;;9.50;99.90;;;;;;4874658;29;20192;-89
2022/09/23 00:43:40;;;;;;;1.08;0.88;;;9.50;99.90;;;;;;4885990;29;20187;-91
2022/09/23 00:46:15;;;;;;;2.70;1.10;;;9.50;99.90;;;;;;4887320;29;20222;-89
2022/09/23 00:48:42;;;;;;;1.42;1.00;;;9.50;99.90;;;;;;4890162;29;20532;-89
2022/09/23 00:51:16;;;;;;;2.25;1.00;;;9.50;99.90;;;;;;4875140;29;20646;-93
2022/09/23 00:53:44;;;;;;;1.60;1.10;;;9.50;99.90;;;;;;4888131;29;20187;-90
2022/09/23 00:56:12;;;;;;;1.30;1.07;;;9.50;99.90;;;;;;4889712;29;20646;-89
2022/09/23 00:58:41;;;;;;;1.90;1.10;;;9.30;99.90;;;;;;4890485;29;20184;-90
2022/09/23 01:01:10;;;;;;;1.30;1.00;;;9.20;99.90;;;;;;4886026;29;20187;-89
2022/09/23 01:03:37;;;;;;;2.92;1.08;;;9.10;99.90;;;;;;4890132;29;20273;-93
2022/09/23 01:06:05;;;;;;;2.43;1.30;;;9.10;99.90;;;;;;4899767;29;20198;-89
2022/09/23 01:08:31;;;;;;;2.50;1.00;;;9.00;99.90;;;;;;4909683;29;20198;-92
2022/09/23 01:11:11;;;;;;;2.38;1.15;;;8.90;99.90;;;;;;4910158;29;20194;-92
2022/09/23 01:13:58;;;;;;;1.73;1.20;;;8.90;99.90;;;;;;4927404;29;20193;-89
2022/09/23 01:16:50;;;;;;;1.15;0.90;;;9.00;99.90;;;;;;4910536;29;20211;-87
2022/09/23 01:19:28;;;;;;;2.83;1.20;;;8.90;99.90;;;;;;4911298;29;20174;-88
2022/09/23 01:22:03;;;;;;;1.70;1.10;;;8.90;99.90;;;;;;4930060;29;20175;-96
2022/09/23 01:24:39;;;;;;;1.70;1.10;;;8.80;99.90;;;;;;4915646;29;20170;-94
2022/09/23 01:27:28;;;;;;;1.70;1.20;;;8.70;99.90;;;;;;4918724;29;20218;-96
2022/09/23 01:30:25;;;;;;;1.93;1.23;;;8.80;99.90;;;;;;4917986;29;20166;-94
2022/09/23 01:33:03;;;;;;;1.60;1.15;;;8.70;99.90;;;;;;4919519;29;20244;-96
2022/09/23 01:35:55;;;;;;;2.45;1.10;;;8.80;99.90;;;;;;4919054;29;20171;-95
2022/09/23 01:38:37;;;;;;;1.13;0.90;;;8.60;99.90;;;;;;4935153;29;20167;-96
2022/09/23 01:41:30;;;;;;;1.60;0.80;;;8.70;99.90;;;;;;4917251;29;20191;-95
2022/09/23 01:44:10;;;;;;;5.63;1.20;;;8.60;99.90;;;;;;4886394;29;20194;-89
2022/09/23 01:46:53;;;;;;;1.17;0.90;;;8.50;99.90;;;;;;4905552;29;20234;-89
2022/09/23 01:49:28;;;;;;;1.93;1.10;;;8.60;99.90;;;;;;4905001;29;20187;-89
2022/09/23 01:52:04;;;;;;;1.57;0.97;;;8.60;99.90;;;;;;4904176;29;20177;-91
2022/09/23 01:54:38;;;;;;;3.50;1.00;;;8.60;99.90;;;;;;4904174;29;20174;-88
2022/09/23 01:57:14;;;;;;;2.40;1.10;;;8.60;99.90;;;;;;4921491;29;20249;-88
2022/09/23 01:59:54;;;;;;;1.70;1.10;;;8.60;99.90;;;;;;5316370;23;20639;-88
2022/09/23 02:02:40;;;;;;;3.20;1.10;;;8.50;99.90;;;;;;4876809;29;20196;-86
2022/09/23 02:05:13;;;;;;;1.00;0.90;;;8.60;99.90;;;;;;4877942;29;20559;-87
2022/09/23 02:07:58;;;;;;;3.23;1.20;;;8.50;99.90;;;;;;4881731;29;20207;-88
2022/09/23 02:10:37;;;;;;;1.10;1.00;;;8.40;99.90;;;;;;4881488;29;20255;-88
2022/09/23 02:13:12;;;;;;;1.10;0.97;;;8.40;99.90;;;;;;4864415;29;20172;-87
2022/09/23 02:15:45;;;;;;;3.00;1.10;;;8.50;99.90;;;;;;4880050;29;20207;-87
2022/09/23 02:18:21;;;;;;;1.43;1.17;;;8.30;99.90;;;;;;4864467;29;20188;-87
2022/09/23 02:20:52;;;;;;;4.67;1.37;;;8.20;99.90;;;;;;4864357;29;20214;-87
2022/09/23 02:23:32;;;;;;;2.60;1.03;;;8.10;99.90;;;;;;4880260;29;20208;-88
2022/09/23 02:26:13;;;;;;;1.93;1.00;;;8.00;99.90;;;;;;4879780;29;20322;-88
2022/09/23 02:28:48;;;;;;;3.37;0.70;;;7.90;99.90;;;;;;4879593;29;20171;-87
2022/09/23 02:31:39;;;;;;;1.67;0.90;;;8.00;99.90;;;;;;4895729;29;20186;-88
2022/09/23 02:34:36;;;;;;;1.90;0.90;;;8.10;99.90;;;;;;4901925;29;20175;-87
2022/09/23 02:37:02;;;;;;;1.87;0.93;;;8.10;99.90;;;;;;4901419;29;20194;-87
2022/09/23 02:39:53;;;;;;;1.70;0.77;;;8.00;99.90;;;;;;4901581;29;20627;-87
2022/09/23 02:42:32;;;;;;;1.73;0.80;;;8.10;99.90;;;;;;4900784;29;20190;-87
2022/09/23 02:44:58;;;;;;;1.80;0.70;;;8.10;99.90;;;;;;4901373;29;20209;-86
2022/09/23 02:47:30;;;;;;;1.20;0.90;;;8.20;99.90;;;;;;4901519;29;20206;-88
2022/09/23 02:49:56;;;;;;;1.20;0.70;;;8.10;99.90;;;;;;4897721;29;20183;-87
2022/09/23 02:52:23;;;;;;;1.10;0.73;;;8.20;99.90;;;;;;4882857;29;20293;-87
2022/09/23 02:54:51;;;;;;;1.00;0.80;;;8.10;99.90;;;;;;4882679;29;20675;-87
2022/09/23 02:57:17;;;;;;;1.27;1.00;;;8.10;99.90;;;;;;4882721;29;20179;-87
2022/09/23 02:59:44;;;;;;;0.97;0.77;;;8.10;99.90;;;;;;4884349;29;20270;-87
2022/09/23 03:02:25;;;;;;;2.07;1.00;;;8.20;99.90;;;;;;4900942;29;20281;-87
2022/09/23 03:05:16;;;;;;;1.97;0.80;;;8.10;99.90;;;;;;4901204;29;20206;-87
2022/09/23 03:07:54;;;;;;;2.13;1.10;;;8.00;99.90;;;;;;4900982;29;20274;-86
2022/09/23 03:10:33;;;;;;;1.37;0.90;;;8.00;99.90;;;;;;4900855;29;20200;-86
2022/09/23 03:13:17;;;;;;;1.60;1.10;;;8.10;99.90;;;;;;4900852;29;20210;-87
2022/09/23 03:16:24;;;;;;;1.73;1.20;;;8.10;99.90;;;;;;4900381;29;20210;-87
2022/09/23 03:19:08;;;;;;;1.10;1.00;;;8.00;99.90;;;;;;4892448;29;20204;-87
2022/09/23 03:21:48;;;;;;;1.13;0.90;;;7.90;99.90;;;;;;4900764;29;20174;-87
2022/09/23 03:24:14;;;;;;;1.23;1.03;;;8.00;99.90;;;;;;4900306;29;20178;-87
2022/09/23 03:26:46;;;;;;;2.77;0.90;;;8.00;99.90;;;;;;4900592;29;20246;-87
2022/09/23 03:29:14;;;;;;;1.10;0.90;;;8.00;99.90;;;;;;4900399;29;20226;-87
2022/09/23 03:31:42;;;;;;;0.93;0.83;;;7.90;99.90;;;;;;4901121;29;20228;-87
2022/09/23 03:34:14;;;;;;;1.27;1.00;;;7.90;99.90;;;;;;4900727;29;20268;-87
2022/09/23 03:36:59;;;;;;;1.40;0.90;;;7.90;99.90;;;;;;4900481;29;20203;-88
2022/09/23 03:39:49;;;;;;;1.50;1.17;;;7.90;99.90;;;;;;4900394;29;20182;-88
2022/09/23 03:42:29;;;;;;;2.13;0.90;;;7.90;99.90;;;;;;4917098;29;20230;-87
2022/09/23 03:44:56;;;;;;;2.10;1.20;;;7.80;99.90;;;;;;4900113;29;20229;-87
2022/09/23 03:47:25;;;;;;;1.50;1.07;;;7.80;99.90;;;;;;4900523;29;20206;-87
2022/09/23 03:49:51;;;;;;;2.33;1.10;;;7.80;99.90;;;;;;4900245;29;20227;-86
2022/09/23 03:52:21;;;;;;;2.80;1.43;;;7.70;99.90;;;;;;4900277;29;20261;-86
2022/09/23 03:54:47;;;;;;;4.17;1.20;;;7.60;99.90;;;;;;4900004;29;20234;-87
2022/09/23 03:57:13;;;;;;;3.13;1.20;;;7.60;99.90;;;;;;4899952;29;20538;-87
2022/09/23 03:59:40;;;;;;;2.40;1.20;;;7.70;99.90;;;;;;4901526;29;20270;-86
2022/09/23 04:02:07;;;;;;;1.83;0.90;;;7.60;99.90;;;;;;4918969;29;20182;-87
2022/09/23 04:04:35;;;;;;;2.03;0.87;;;7.60;99.90;;;;;;4918447;29;20704;-87
2022/09/23 04:07:02;;;;;;;1.67;1.07;;;7.60;99.90;;;;;;4918655;29;20617;-87
2022/09/23 04:09:28;;;;;;;1.30;1.10;;;7.60;99.90;;;;;;4918784;29;20178;-86
2022/09/23 04:11:54;;;;;;;1.13;1.00;;;7.70;99.90;;;;;;4918892;29;20241;-87
2022/09/23 04:14:21;;;;;;;2.83;1.30;;;7.70;99.90;;;;;;4918989;29;20569;-87
2022/09/23 04:16:48;;;;;;;1.63;1.13;;;7.60;99.90;;;;;;4918402;29;20181;-87
2022/09/23 04:19:15;;;;;;;1.90;1.00;;;7.50;99.90;;;;;;4918408;29;20174;-87
2022/09/23 04:21:42;;;;;;;2.50;0.93;;;7.40;99.90;;;;;;4918594;29;20193;-87
2022/09/23 04:24:10;;;;;;;2.93;0.80;;;7.50;99.90;;;;;;4918476;29;20189;-88
2022/09/23 04:26:37;;;;;;;1.00;0.70;;;7.60;99.90;;;;;;4918503;29;20259;-87
2022/09/23 04:29:03;;;;;;;1.33;0.90;;;7.60;99.90;;;;;;4917686;29;20240;-88
2022/09/23 04:31:30;;;;;;;1.50;0.87;;;7.70;99.90;;;;;;4935356;29;20172;-87
2022/09/23 04:33:57;;;;;;;4.40;0.97;;;7.70;99.90;;;;;;4918413;29;20170;-89
2022/09/23 04:36:23;;;;;;;1.10;0.80;;;7.60;99.90;;;;;;4918689;29;20221;-89
2022/09/23 04:38:49;;;;;;;1.90;0.83;;;7.60;99.90;;;;;;4918606;29;20186;-89
2022/09/23 04:41:16;;;;;;;0.80;0.80;;;7.60;99.90;;;;;;4918304;29;20182;-88
2022/09/23 04:43:42;;;;;;;2.47;0.90;;;7.50;99.90;;;;;;4918403;29;20182;-89
2022/09/23 04:46:10;;;;;;;0.87;0.73;;;7.40;99.90;;;;;;4917933;29;20229;-89
2022/09/23 04:48:37;;;;;;;2.17;0.80;;;7.30;99.90;;;;;;4917757;29;20182;-88
2022/09/23 04:51:11;;;;;;;2.20;0.87;;;7.20;99.90;;;;;;4918440;29;20205;-89
2022/09/23 04:53:39;;;;;;;0.97;0.80;;;7.20;99.90;;;;;;4918312;29;20193;-89
2022/09/23 04:56:11;;;;;;;3.07;1.00;;;7.30;99.90;;;;;;4917876;29;20205;-89
2022/09/23 04:58:38;;;;;;;1.53;0.90;;;7.20;99.90;;;;;;4918093;29;20261;-89
2022/09/23 05:01:33;;;;;;;1.00;0.87;;;7.20;99.90;;;;;;4917483;29;20226;-88
2022/09/23 05:04:01;;;;;;;1.37;1.10;;;7.20;99.90;;;;;;4915354;29;20194;-88
2022/09/23 05:06:28;;;;;;;2.50;0.90;;;7.10;99.90;;;;;;4918369;29;20214;-89
2022/09/23 05:08:56;;;;;;;1.30;0.93;;;7.20;99.90;;;;;;4918355;29;20492;-89
2022/09/23 05:11:24;;;;;;;1.57;1.20;;;7.20;99.90;;;;;;4918027;29;20181;-89
2022/09/23 05:13:51;;;;;;;1.13;0.90;;;7.20;99.90;;;;;;4917864;29;20178;-89
2022/09/23 05:16:18;;;;;;;2.73;1.10;;;7.20;99.90;;;;;;4917468;29;20670;-88
2022/09/23 05:18:45;;;;;;;1.10;0.97;;;7.20;99.90;;;;;;4917975;29;20178;-89
2022/09/23 05:21:13;;;;;;;3.50;1.00;;;7.20;99.90;;;;;;4918083;29;20184;-89
2022/09/23 05:23:41;;;;;;;1.93;1.03;;;7.20;99.90;;;;;;4917781;29;20721;-89
2022/09/23 05:26:09;;;;;;;1.20;1.10;;;7.30;99.90;;;;;;4901738;29;20210;-89
2022/09/23 05:28:36;;;;;;;1.83;1.03;;;7.40;99.90;;;;;;4918050;29;20181;-89
2022/09/23 05:31:08;;;;;;;1.60;1.00;;;7.40;99.90;;;;;;4917820;29;20221;-89
2022/09/23 05:33:35;;;;;;;1.73;1.10;;;7.40;99.90;;;;;;4917732;29;20250;-89
2022/09/23 05:36:02;;;;;;;1.83;0.90;;;7.40;99.90;;;;;;4917590;29;20206;-89
2022/09/23 05:38:29;;;;;;;1.00;0.90;;;7.30;99.90;;;;;;4917658;29;20523;-89
2022/09/23 05:41:00;;;;;;;3.00;1.37;;;7.30;99.90;;;;;;4935916;29;20220;-88
2022/09/23 05:43:26;;;;;;;5.77;1.30;;;7.30;99.90;;;;;;4921502;29;20177;-90
2022/09/23 05:46:05;;;;;;;1.77;1.00;;;7.30;99.90;;;;;;4921456;29;20228;-88
2022/09/23 05:48:32;;;;;;;1.57;1.03;;;7.30;99.90;;;;;;4921557;29;20185;-89
2022/09/23 05:50:58;;;;;;;1.30;1.20;;;7.30;99.90;;;;;;4938179;29;20170;-89
2022/09/23 05:53:25;;;;;;;1.80;1.07;;;7.30;99.90;;;;;;4921568;29;20177;-89
2022/09/23 05:55:53;;;;;;;2.50;1.20;;;7.40;99.90;;;;;;4921438;29;20201;-90
2022/09/23 05:58:20;;;;;;;1.30;1.10;;;7.40;99.90;;;;;;4921154;29;20201;-90
2022/09/23 06:00:48;;;;;;;2.50;1.20;;;7.40;99.90;;;;;;4937951;29;20217;-88
2022/09/23 06:03:16;;;;;;;4.60;1.20;;;7.50;99.90;;;;;;4938331;29;20170;-88
2022/09/23 06:05:42;;;;;;;1.90;1.27;;;7.40;99.90;;;;;;4920680;29;20202;-88
2022/09/23 06:08:09;;;;;;;5.33;1.30;;;7.50;99.90;;;;;;4921448;29;20212;-87
2022/09/23 06:10:39;;;;;;;6.40;1.50;;;7.50;99.90;;;;;;4938180;29;20174;-88
2022/09/23 06:13:05;;;;;;;2.50;1.67;;;7.60;99.90;;;;;;4921019;29;20579;-88
2022/09/23 06:15:31;;;;;;;2.30;1.63;;;7.60;99.90;;;;;;4920820;29;20714;-88
2022/09/23 06:17:58;;;;;;;3.60;1.37;;;7.70;99.90;;;;;;4920927;29;20182;-87
2022/09/23 06:20:24;;;;;;;2.40;1.40;;;7.80;99.90;;;;;;4920842;29;20596;-87
2022/09/23 06:22:49;;;;;;;2.63;1.40;;;7.90;99.90;;;;;;4920809;29;20206;-85
2022/09/23 06:25:18;;;;;;;2.47;1.40;;;8.00;99.90;;;;;;4920682;29;20256;-87
2022/09/23 06:27:53;;;;;;;2.33;1.53;;;8.10;99.90;;;;;;4920781;29;20213;-88
2022/09/23 06:30:23;;;;;;;2.93;1.60;;;8.20;99.90;;;;;;4920723;29;20641;-86
2022/09/23 06:32:55;;;;;;;2.07;1.40;;;8.40;99.90;;;;;;4920488;29;20181;-87
2022/09/23 06:35:23;;;;;;;6.70;1.60;;;8.50;99.90;;;;;;4920683;29;20257;-88
2022/09/23 06:37:52;;;;;;;3.00;1.70;;;8.60;99.90;;;;;;4920525;29;20181;-88
2022/09/23 06:40:18;;;;;;;2.37;1.57;;;8.70;99.90;;;;;;4920615;29;20197;-88
2022/09/23 06:42:44;;;;;;;1.95;1.35;;;8.80;99.90;;;;;;4920748;29;20301;-88
2022/09/23 06:45:13;;;;;;;4.27;1.30;;;8.90;99.90;;;;;;4920259;29;20285;-89
2022/09/23 06:47:43;;;;;;;1.87;1.50;;;9.00;99.90;;;;;;4920045;29;20221;-89
2022/09/23 06:50:11;;;;;;;2.00;1.40;;;9.00;99.90;;;;;;4920835;29;20513;-87
2022/09/23 06:52:37;;;;;;;3.20;1.52;;;9.00;99.90;;;;;;4920405;29;20190;-88
2022/09/23 06:55:03;;;;;;;3.47;1.50;;;9.10;99.90;;;;;;4920075;29;20280;-86
2022/09/23 06:57:31;;;;;;;1.88;1.40;;;9.10;99.90;;;;;;4920327;29;20205;-88
2022/09/23 06:59:58;;;;;;;2.35;1.77;;;9.20;99.90;;;;;;4919779;29;20595;-88
2022/09/23 07:02:25;;;;;;;2.30;1.50;;;9.30;99.90;;;;;;4918901;29;20178;-88
2022/09/23 07:04:51;;;;;;;2.38;1.40;;;9.30;99.90;;;;;;4918895;29;20281;-88
2022/09/23 07:07:17;;;;;;;2.40;1.70;;;9.40;99.90;;;;;;4919203;29;20249;-89
2022/09/23 07:09:44;;;;;;;2.38;1.67;;;9.50;99.90;;;;;;4918889;29;20170;-88
2022/09/23 07:12:11;;;;;;;2.22;1.40;;;9.70;99.90;;;;;;4918928;29;20627;-86
2022/09/23 07:14:37;;;;;;;2.83;1.60;;;9.80;99.90;;;;;;4918708;29;20208;-89
2022/09/23 07:17:04;;;;;;;2.10;1.40;;;9.90;99.90;;;;;;4919065;29;20533;-88
2022/09/23 07:19:29;;;;;;;4.45;1.90;;;10.00;99.90;;;;;;4919229;29;20174;-88
2022/09/23 07:21:55;;;;;;;2.00;1.30;;;10.10;99.90;;;;;;4918979;29;20198;-87
2022/09/23 07:24:22;;;;;;;2.67;1.40;;;10.20;99.90;;;;;;4918459;29;20178;-88
2022/09/23 07:26:48;;;;;;;1.90;1.38;;;10.30;99.90;;;;;;4918824;29;20607;-89
2022/09/23 07:29:14;;;;;;;3.22;1.30;;;10.40;99.90;;;;;;4918554;29;20166;-86
2022/09/23 07:31:41;;;;;;;1.58;1.10;;;10.50;99.90;;;;;;4918785;29;20190;-87
2022/09/23 07:34:10;;;;;;;2.47;1.27;;;10.60;99.90;;;;;;4918738;29;20182;-88
2022/09/23 07:36:39;;;;;;;1.55;1.20;;;10.70;99.90;;;;;;4918408;29;20178;-87
2022/09/23 07:39:09;;;;;;;3.35;1.00;;;10.80;99.90;;;;;;4918611;29;20173;-87
2022/09/23 07:41:36;;;;;;;3.58;1.35;;;10.90;99.90;;;;;;4918768;29;20206;-88
2022/09/23 07:44:02;;;;;;;1.85;1.30;;;11.00;99.90;;;;;;4918381;29;20174;-88
2022/09/23 07:46:31;;;;;;;2.25;1.20;;;11.10;99.90;;;;;;4935208;29;20210;-88
2022/09/23 07:48:57;;;;;;;5.50;1.10;;;11.10;99.90;;;;;;4935497;29;20158;-88
2022/09/23 07:51:26;;;;;;;1.30;1.20;;;11.10;99.90;;;;;;4918479;29;20612;-88
2022/09/23 07:53:53;;;;;;;2.03;1.30;;;11.10;99.90;;;;;;4918219;29;20223;-87
2022/09/23 07:56:21;;;;;;;2.78;1.30;;;11.20;99.90;;;;;;4918506;29;20678;-86
2022/09/23 07:58:58;;;;;;;1.50;1.15;;;11.20;99.90;;;;;;4918364;29;20178;-87
2022/09/23 08:01:26;;;;;;;3.63;1.30;;;11.20;99.90;;;;;;4881796;29;1148744;-89
2022/09/23 08:03:52;;;;;;;1.30;1.00;;;11.30;99.90;;;;;;4899563;29;20242;-87
2022/09/23 08:06:19;;;;;;;2.05;1.23;;;11.40;99.90;;;;;;4899924;29;20682;-89
2022/09/23 08:08:45;;;;;;;2.10;1.02;;;11.40;99.90;;;;;;4900025;29;20230;-88
2022/09/23 08:11:13;;;;;;;1.55;1.00;;;11.50;99.90;;;;;;4900494;29;20175;-87
2022/09/23 08:13:39;;;;;;;1.20;0.90;;;11.60;99.90;;;;;;4900008;29;20678;-89
2022/09/23 08:16:05;;;;;;;2.10;0.90;;;11.70;99.90;;;;;;4899635;29;20262;-88
2022/09/23 08:18:31;;;;;;;1.90;1.00;;;11.80;99.90;;;;;;4899877;29;20171;-89
2022/09/23 08:20:57;;;;;;;4.43;1.10;;;11.90;99.90;;;;;;4899630;29;20171;-86
2022/09/23 08:23:23;;;;;;;1.10;0.82;;;12.00;99.90;;;;;;4900387;29;20222;-87
2022/09/23 08:25:58;;;;;;;1.42;1.00;;;12.10;99.90;;;;;;4900033;29;20610;-87
2022/09/23 08:28:24;;;;;;;1.67;0.98;;;12.30;99.90;;;;;;4900047;29;20198;-88
2022/09/23 08:30:51;;;;;;;2.22;1.00;;;12.40;99.90;;;;;;4916877;29;20765;-86
2022/09/23 08:33:16;;;;;;;2.05;1.27;;;12.50;99.90;;;;;;4899943;29;20171;-87
2022/09/23 08:35:42;;;;;;;2.30;1.60;;;12.70;99.90;;;;;;4916603;29;20246;-88
2022/09/23 08:38:08;;;;;;;6.38;1.38;;;12.70;99.90;;;;;;4916878;29;20643;-87
2022/09/23 08:40:46;;;;;;;2.78;1.20;;;12.80;99.90;;;;;;4899479;29;20269;-88
2022/09/23 08:43:33;;;;;;;1.60;1.23;;;12.80;99.90;;;;;;4899716;29;20639;-88
2022/09/23 08:46:03;;;;;;;2.42;1.50;;;12.90;99.90;;;;;;4916388;29;20206;-88
2022/09/23 08:48:33;;;;;;;5.13;1.60;;;12.90;99.90;;;;;;4899599;29;20262;-88
2022/09/23 08:51:12;;;;;;;2.22;1.50;;;12.90;99.90;;;;;;4899675;29;20194;-86
2022/09/23 08:53:38;;;;;;;4.32;1.42;;;13.00;99.90;;;;;;4899614;29;20587;-87
2022/09/23 08:56:08;;;;;;;1.60;1.17;;;13.00;99.90;;;;;;4899486;29;20323;-87
2022/09/23 08:58:55;;;;;;;2.70;1.08;;;13.00;99.90;;;;;;4916572;29;20175;-89
2022/09/23 09:01:27;;;;;;;3.88;1.17;;;13.00;99.90;;;;;;4914113;29;20244;-87
2022/09/23 09:04:14;;;;;;;3.58;1.00;;;13.10;99.90;;;;;;4918258;29;20541;-88
2022/09/23 09:06:44;;;;;;;1.80;1.10;;;13.20;99.90;;;;;;4918141;29;20213;-88
2022/09/23 09:09:35;;;;;;;2.28;1.00;;;13.30;99.90;;;;;;4918000;29;20166;-88
2022/09/23 09:12:09;;;;;;;4.20;1.23;;;13.40;99.90;;;;;;4918078;29;20216;-85
2022/09/23 09:15:01;;;;;;;2.15;1.10;;;13.60;99.90;;;;;;4917654;29;20241;-87
2022/09/23 09:17:37;;;;;;;3.22;1.15;;;13.80;99.90;;;;;;4917882;29;20650;-89
2022/09/23 09:20:41;;;;;;;4.25;1.20;;;13.90;99.90;;;;;;4917788;29;20177;-88
2022/09/23 09:23:21;;;;;;;2.00;1.00;;;14.00;99.90;;;;;;4914023;29;20200;-88
2022/09/23 09:25:52;;;;;;;1.85;0.93;;;14.00;99.90;;;;;;4917550;29;20753;-87
2022/09/23 09:28:35;;;;;;;2.15;1.30;;;14.10;99.90;;;;;;4934981;29;20233;-87
2022/09/23 09:31:10;;;;;;;1.85;1.38;;;14.10;99.90;;;;;;4918063;29;20658;-88
2022/09/23 09:34:08;;;;;;;3.17;1.58;;;14.10;99.90;;;;;;4918220;29;20166;-88
2022/09/23 09:36:43;;;;;;;2.80;1.42;;;14.10;99.90;;;;;;4907301;29;20288;-88
2022/09/23 09:39:14;;;;;;;2.58;1.40;;;14.30;99.90;;;;;;4918215;29;20177;-86
2022/09/23 09:41:44;;;;;;;5.57;1.45;;;14.40;99.90;;;;;;4934956;29;20166;-89
2022/09/23 09:44:26;;;;;;;3.67;1.40;;;14.40;99.90;;;;;;4917954;29;20170;-89
2022/09/23 09:47:07;;;;;;;1.95;1.50;;;14.60;99.90;;;;;;4917835;29;20209;-87
2022/09/23 09:49:41;;;;;;;7.70;1.88;;;14.70;99.90;;;;;;4917821;29;20173;-88
2022/09/23 09:52:28;;;;;;;3.95;1.80;;;14.80;99.90;;;;;;4918088;29;20174;-87
2022/09/23 09:55:00;;;;;;;2.42;1.50;;;14.90;99.90;;;;;;4917640;29;20197;-88
2022/09/23 09:57:35;;;;;;;3.33;1.50;;;15.00;99.90;;;;;;4917675;29;20185;-88
2022/09/23 10:00:25;;;;;;;3.90;1.30;;;15.00;99.90;;;;;;4917799;29;20229;-88
2022/09/23 10:03:30;;;;;;;4.85;1.92;;;15.10;99.90;;;;;;4917465;29;20186;-90
2022/09/23 10:05:56;;;;;;;1.52;1.10;;;15.10;99.90;;;;;;4889249;29;20214;-89
2022/09/23 10:08:33;;;;;;;3.28;1.48;;;15.20;99.90;;;;;;4917586;29;20257;-89
2022/09/23 10:11:18;;;;;;;2.60;1.50;;;15.20;99.90;;;;;;4917380;29;20645;-89
2022/09/23 10:14:11;;;;;;;2.70;1.50;;;15.30;99.90;;;;;;4917484;29;20170;-88
2022/09/23 10:16:39;;;;;;;3.70;1.80;;;15.40;99.90;;;;;;4917261;29;20174;-88
2022/09/23 10:19:33;;;;;;;6.32;1.98;;;15.40;99.90;;;;;;4917813;29;20174;-87
2022/09/23 10:22:04;;;;;;;3.63;1.60;;;15.40;99.90;;;;;;4915091;29;20238;-87
2022/09/23 10:24:35;;;;;;;2.72;1.80;;;15.50;99.90;;;;;;4917355;29;20297;-88
2022/09/23 10:27:07;;;;;;;2.40;1.40;;;15.60;99.90;;;;;;4935801;29;20190;-87
2022/09/23 10:29:46;;;;;;;2.53;1.42;;;15.60;99.90;;;;;;4920765;29;20265;-87
2022/09/23 10:32:21;;;;;;;4.18;1.70;;;15.70;99.90;;;;;;4920804;29;20165;-88
2022/09/23 10:34:52;;;;;;;2.75;1.55;;;15.90;99.90;;;;;;4920746;29;20201;-88
2022/09/23 10:37:24;;;;;;;4.07;1.92;;;16.00;99.90;;;;;;4920620;29;20184;-89
2022/09/23 10:48:52;;;;;;;3.65;1.65;;;16.30;98.70;;;;;;4937586;29;20257;-88
2022/09/23 10:51:35;;;;;;;5.47;1.58;;;16.40;99.10;;;;;;4920367;29;20189;-89
2022/09/23 10:54:11;;;;;;;4.90;1.70;;;16.60;98.00;;;;;;4920761;29;20185;-88
2022/09/23 10:56:47;;;;;;;3.40;1.70;;;16.80;98.60;;;;;;4920440;29;20213;-89
2022/09/23 10:59:52;;;;;;;4.22;1.63;;;16.90;98.20;;;;;;4920312;29;20194;-86
2022/09/23 11:02:48;;;;;;;8.70;1.80;;;16.90;97.20;;;;;;4920566;29;20221;-88
2022/09/23 11:05:34;;;;;;;3.38;1.75;;;16.90;98.20;;;;;;4920085;29;20205;-88
2022/09/23 11:08:30;;;;;;;5.43;1.77;;;17.00;98.40;;;;;;4904251;29;20210;-88
2022/09/23 11:11:10;;;;;;;2.95;1.38;;;17.10;98.00;;;;;;4866659;29;20187;-87
2022/09/23 11:13:51;;;;;;;3.65;1.60;;;17.20;97.10;;;;;;4899243;29;20156;-88
2022/09/23 11:16:42;;;;;;;3.95;1.55;;;17.30;97.70;;;;;;4881969;29;20203;-87
2022/09/23 11:19:44;;;;;;;2.85;1.40;;;17.50;97.60;;;;;;4882520;29;20698;-89
2022/09/23 11:22:37;;;;;;;2.75;1.67;;;17.50;97.90;;;;;;4882356;29;20175;-87
2022/09/23 11:25:15;;;;;;;2.17;1.48;;;17.40;96.10;;;;;;4882399;29;20203;-88
2022/09/23 11:28:28;;;;;;;1.75;1.10;;;17.50;98.10;;;;;;4882658;29;20563;-87
2022/09/23 11:31:05;;;;;;;3.00;1.15;;;17.40;95.20;;;;;;4904180;29;20284;-88
2022/09/23 11:33:53;;;;;;;1.63;0.98;;;17.60;97.00;;;;;;4919988;29;20172;-88
2022/09/23 11:36:51;;;;;;;1.65;1.02;;;17.80;97.40;;;;;;4936770;29;20202;-87
2022/09/23 11:39:24;;;;;;;1.85;0.77;;;17.90;95.00;;;;;;4918724;29;20284;-90
2022/09/23 11:41:54;;;;;;;0.90;0.80;;;18.00;95.50;;;;;;4919796;29;20238;-87
2022/09/23 11:44:28;;;;;;;1.27;0.70;;;17.90;94.70;;;;;;4919704;29;20301;-89
2022/09/23 11:47:09;;;;;;;1.10;0.80;;;17.80;94.40;;;;;;4919842;29;20570;-88
2022/09/23 11:50:13;;;;;;;0.75;0.60;;;17.60;93.70;;;;;;4919785;29;20174;-88
2022/09/23 11:52:47;;;;;;;1.67;0.80;;;17.50;92.90;;;;;;4909827;29;20733;-87
2022/09/23 11:55:47;;;;;;;2.78;0.80;;;17.30;93.50;;;;;;4936696;29;20283;-88
2022/09/23 11:58:18;;;;;;;1.88;0.90;;;17.30;94.00;;;;;;4919949;29;20205;-87
2022/09/23 12:01:18;;;;;;;0.85;0.70;;;17.20;94.20;;;;;;4927582;29;20238;-89
2022/09/23 12:04:14;;;;;;;1.23;0.90;;;17.20;94.00;;;;;;4871108;29;20213;-87
2022/09/23 12:06:44;;;;;;;1.80;0.98;;;17.30;94.50;;;;;;4900400;29;20217;-88
2022/09/23 12:09:21;;;;;;;2.47;0.80;;;17.30;93.20;;;;;;4917735;29;20162;-87
2022/09/23 12:12:01;;;;;;;1.30;1.00;;;17.30;93.90;;;;;;4900417;29;20573;-89
2022/09/23 12:14:48;;;;;;;3.67;1.20;;;17.30;93.90;;;;;;4900791;29;20318;-88
2022/09/23 12:17:32;;;;;;;1.05;0.90;;;17.30;94.60;;;;;;4900282;29;20179;-87
2022/09/23 12:20:12;;;;;;;1.20;0.80;;;17.40;94.10;;;;;;4900387;29;20178;-89
2022/09/23 12:22:53;;;;;;;1.55;1.00;;;17.60;93.90;;;;;;4900535;29;20189;-90
2022/09/23 12:25:51;;;;;;;1.17;0.90;;;17.70;93.90;;;;;;4899984;29;20225;-88
2022/09/23 12:28:25;;;;;;;4.75;1.13;;;17.70;93.30;;;;;;4900302;29;20229;-89
2022/09/23 12:30:54;;;;;;;0.93;0.80;;;17.70;93.10;;;;;;4900238;29;20242;-89
2022/09/23 12:33:25;;;;;;;0.95;0.82;;;17.80;93.90;;;;;;4899937;29;20170;-90
2022/09/23 12:36:06;;;;;;;2.88;1.00;;;17.80;93.20;;;;;;4917277;29;20263;-90
2022/09/23 12:38:45;;;;;;;0.95;0.85;;;17.80;94.10;;;;;;4900252;29;20174;-90
2022/09/23 12:41:25;;;;;;;2.20;0.80;;;17.80;92.30;;;;;;4899922;29;20269;-91
2022/09/23 12:44:12;;;;;;;1.77;0.88;;;17.80;92.70;;;;;;4916899;29;20167;-89
2022/09/23 12:46:46;;;;;;;0.85;0.75;;;17.90;93.50;;;;;;4899262;29;20206;-88
2022/09/23 12:49:36;;;;;;;2.45;0.82;;;17.90;93.80;;;;;;4899315;29;20174;-88
2022/09/23 12:52:27;;;;;;;3.97;1.00;;;17.80;93.00;;;;;;4899487;29;20178;-89
2022/09/23 12:55:17;;;;;;;2.78;0.80;;;17.90;93.90;;;;;;4892644;29;20212;-90
2022/09/23 12:57:43;;;;;;;1.23;0.90;;;17.90;94.60;;;;;;4915959;29;20238;-90
2022/09/23 13:00:25;;;;;;;1.67;1.00;;;17.90;93.60;;;;;;4899104;29;20238;-87
2022/09/23 13:08:39;;;;;;;1.60;0.93;;;18.00;92.60;;;;;;4916181;29;20262;-88
2022/09/23 13:11:16;;;;;;;2.05;0.88;;;18.00;93.80;;;;;;4899468;29;20175;-88
2022/09/23 13:13:44;;;;;;;3.42;0.80;;;18.00;93.80;;;;;;4899772;29;20177;-89
2022/09/23 13:16:28;;;;;;;2.10;0.98;;;18.00;93.10;;;;;;4899496;29;20199;-90
2022/09/23 13:19:07;;;;;;;0.98;0.80;;;18.00;93.60;;;;;;4899049;29;20191;-90
2022/09/23 13:21:41;;;;;;;0.95;0.70;;;17.90;93.70;;;;;;4899702;29;20170;-88
2022/09/23 13:24:28;;;;;;;1.00;0.90;;;17.90;93.10;;;;;;4899610;29;20241;-90
2022/09/23 13:27:01;;;;;;;1.40;0.90;;;17.90;93.90;;;;;;4898869;29;20257;-88
2022/09/23 13:29:32;;;;;;;2.58;0.90;;;17.80;93.20;;;;;;4899302;29;20171;-89
2022/09/23 13:32:00;;;;;;;0.80;0.70;;;17.90;93.60;;;;;;4899481;29;20175;-90
2022/09/23 13:34:31;;;;;;;2.78;0.75;;;17.90;93.20;;;;;;4898804;29;20219;-91
2022/09/23 13:36:57;;;;;;;1.60;1.10;;;17.90;94.00;;;;;;4899332;29;20650;-88
2022/09/23 13:39:27;;;;;;;1.08;0.68;;;17.80;93.40;;;;;;4916086;29;20222;-87
2022/09/23 13:41:59;;;;;;;1.13;0.80;;;17.80;93.20;;;;;;4898990;29;20175;-90
2022/09/23 13:44:26;;;;;;;1.65;0.88;;;17.90;95.00;;;;;;4899067;29;20222;-90